Time;durP1;ratioP1;P1;durP2;ratioP2;P2;SDS_P1;SDS_P2;PMS_P1;PMS_P2;Temp;Humidity;BMP_temperature;BMP_pressure;BME280_temperature;BME280_humidity;BME280_pressure;Samples;Min_cycle;Max_cycle;Signal;HPM_P1;HPM_P2
2022/03/17 00:02:02;;;;;;;;;;;;;;;;;;5035864;28;19971;-56
2022/03/17 00:04:28;;;;;;;;;;;;;;;;;;5035909;28;19905;-57
2022/03/17 00:06:54;;;;;;;;;;;;;;;;;;5035843;28;20341;-56
2022/03/17 00:09:20;;;;;;;;;;;;;;;;;;5035791;28;19912;-56
2022/03/17 00:11:46;;;;;;;;;;;;;;;;;;5035833;28;19912;-56
2022/03/17 00:14:12;;;;;;;;;;;;;;;;;;5035729;28;20015;-57
2022/03/17 00:16:38;;;;;;;;;;;;;;;;;;5035620;28;19909;-56
2022/03/17 00:19:07;;;;;;;;;;;;;;;;;;5035621;28;20054;-57
2022/03/17 00:21:33;;;;;;;;;;;;;;;;;;5035611;28;20299;-57
2022/03/17 00:23:59;;;;;;;;;;;;;;;;;;5035454;28;19905;-57
2022/03/17 00:26:25;;;;;;;;;;;;;;;;;;5034138;28;20022;-57
2022/03/17 00:28:51;;;;;;;;;;;;;;;;;;5035386;28;19905;-57
2022/03/17 00:31:17;;;;;;;;;;;;;;;;;;5035402;28;19959;-56
2022/03/17 00:33:43;;;;;;;;;;;;;;;;;;5035649;28;19905;-57
2022/03/17 00:36:09;;;;;;;;;;;;;;;;;;5035248;28;19934;-56
2022/03/17 00:38:35;;;;;;;;;;;;;;;;;;5035441;28;19913;-57
2022/03/17 00:41:01;;;;;;;;;;;;;;;;;;5035122;28;19912;-56
2022/03/17 00:43:27;;;;;;;;;;;;;;;;;;5035089;28;19948;-56
2022/03/17 00:45:53;;;;;;;;;;;;;;;;;;5035103;28;19905;-56
2022/03/17 00:48:19;;;;;;;;;;;;;;;;;;5035039;28;19905;-57
2022/03/17 00:50:45;;;;;;;;;;;;;;;;;;5035355;28;19905;-57
2022/03/17 00:53:10;;;;;;;;;;;;;;;;;;5034909;28;19947;-56
2022/03/17 00:55:36;;;;;;;;;;;;;;;;;;5034879;28;19905;-55
2022/03/17 00:58:02;;;;;;;;;;;;;;;;;;5034793;28;19920;-57
2022/03/17 01:00:28;;;;;;;;;;;;;;;;;;5034770;28;19905;-56
2022/03/17 01:02:54;;;;;;;;;;;;;;;;;;5034507;28;19979;-55
2022/03/17 01:05:20;;;;;;;;;;;;;;;;;;5034958;28;19905;-57
2022/03/17 01:07:46;;;;;;;;;;;;;;;;;;5034757;28;19909;-57
2022/03/17 01:10:12;;;;;;;;;;;;;;;;;;5034890;28;19917;-56
2022/03/17 01:12:38;;;;;;;;;;;;;;;;;;5034890;28;19905;-57
2022/03/17 01:15:04;;;;;;;;;;;;;;;;;;5034480;28;20397;-56
2022/03/17 01:17:30;;;;;;;;;;;;;;;;;;5034361;28;19913;-57
2022/03/17 01:19:55;;;;;;;;;;;;;;;;;;5034398;28;19959;-55
2022/03/17 01:22:21;;;;;;;;;;;;;;;;;;5034290;28;20364;-54
2022/03/17 01:24:47;;;;;;;;;;;;;;;;;;5034585;28;19945;-55
2022/03/17 01:27:13;;;;;;;;;;;;;;;;;;5034359;28;20283;-56
2022/03/17 01:29:41;;;;;;;;;;;;;;;;;;5034203;28;19912;-55
2022/03/17 01:32:07;;;;;;;;;;;;;;;;;;5034224;28;19905;-56
2022/03/17 01:34:33;;;;;;;;;;;;;;;;;;5034118;28;20292;-55
2022/03/17 01:36:59;;;;;;;;;;;;;;;;;;5033615;28;19913;-57
2022/03/17 01:39:24;;;;;;;;;;;;;;;;;;5033990;28;19905;-57
2022/03/17 01:41:50;;;;;;;;;;;;;;;;;;5033975;28;19912;-58
2022/03/17 01:44:16;;;;;;;;;;;;;;;;;;5033947;28;19999;-57
2022/03/17 01:49:27;;;;;;;;;;;;;;;;;;5033945;28;19912;-57
2022/03/17 01:51:53;;;;;;;;;;;;;;;;;;5033805;28;19905;-57
2022/03/17 01:54:19;;;;;;;;;;;;;;;;;;5033733;28;20278;-57
2022/03/17 01:56:45;;;;;;;;;;;;;;;;;;5033657;28;19912;-57
2022/03/17 01:59:11;;;;;;;;;;;;;;;;;;5033678;28;19944;-57
2022/03/17 02:01:38;;;;;;;;;;;;;;;;;;5033631;28;19905;-57
2022/03/17 02:04:04;;;;;;;;;;;;;;;;;;5033525;28;19987;-57
2022/03/17 02:06:31;;;;;;;;;;;;;;;;;;5033553;28;19909;-57
2022/03/17 02:08:57;;;;;;;;;;;;;;;;;;5033787;28;19959;-57
2022/03/17 02:14:08;;;;;;;;;;;;;;;;;;5033481;28;19912;-58
2022/03/17 02:16:34;;;;;;;;;;;;;;;;;;5033250;28;20363;-57
2022/03/17 02:18:59;;;;;;;;;;;;;;;;;;5033345;28;19911;-57
2022/03/17 02:21:25;;;;;;;;;;;;;;;;;;5033350;28;19912;-58
2022/03/17 02:26:36;;;;;;;;;;;;;;;;;;5033262;28;20457;-57
2022/03/17 02:29:02;;;;;;;;;;;;;;;;;;5033214;28;19909;-58
2022/03/17 02:31:28;;;;;;;;;;;;;;;;;;5033071;28;19940;-57
2022/03/17 02:33:53;;;;;;;;;;;;;;;;;;5033058;28;19905;-57
2022/03/17 02:36:19;;;;;;;;;;;;;;;;;;5033228;28;19905;-57
2022/03/17 02:38:45;;;;;;;;;;;;;;;;;;5032997;28;19992;-58
2022/03/17 02:41:21;;;;;;;;;;;;;;;;;;5032974;28;19905;-57
2022/03/17 02:43:47;;;;;;;;;;;;;;;;;;5033210;28;19905;-58
2022/03/17 02:46:13;;;;;;;;;;;;;;;;;;5032849;28;19912;-58
2022/03/17 02:48:39;;;;;;;;;;;;;;;;;;5032346;28;19905;-57
2022/03/17 02:51:05;;;;;;;;;;;;;;;;;;5032824;28;20372;-58
2022/03/17 02:53:31;;;;;;;;;;;;;;;;;;5032750;28;19951;-57
2022/03/17 02:55:57;;;;;;;;;;;;;;;;;;5032689;28;19905;-56
2022/03/17 02:58:22;;;;;;;;;;;;;;;;;;5032759;28;19935;-57
2022/03/17 03:00:48;;;;;;;;;;;;;;;;;;5032715;28;19912;-56
2022/03/17 03:03:17;;;;;;;;;;;;;;;;;;5032425;28;19959;-57
2022/03/17 03:05:43;;;;;;;;;;;;;;;;;;5032903;28;19928;-57
2022/03/17 03:08:08;;;;;;;;;;;;;;;;;;5032658;28;20371;-56
2022/03/17 03:10:34;;;;;;;;;;;;;;;;;;5032863;28;20038;-57
2022/03/17 03:13:00;;;;;;;;;;;;;;;;;;5032589;28;19936;-57
2022/03/17 03:15:26;;;;;;;;;;;;;;;;;;5032618;28;19905;-58
2022/03/17 03:17:54;;;;;;;;;;;;;;;;;;5032557;28;20008;-57
2022/03/17 03:20:20;;;;;;;;;;;;;;;;;;5032799;28;19905;-57
2022/03/17 03:22:46;;;;;;;;;;;;;;;;;;5032753;28;20000;-56
2022/03/17 03:25:12;;;;;;;;;;;;;;;;;;5032482;28;20279;-57
2022/03/17 03:27:43;;;;;;;;;;;;;;;;;;5032418;28;19905;-57
2022/03/17 03:30:09;;;;;;;;;;;;;;;;;;5032442;28;19905;-56
2022/03/17 03:32:35;;;;;;;;;;;;;;;;;;5032412;28;20422;-57
2022/03/17 03:37:22;;;;;;;;;;;;;;;;;;5032424;28;19905;-57
2022/03/17 03:37:46;;;;;;;;;;;;;;;;;;5032260;28;19912;-57
2022/03/17 03:40:12;;;;;;;;;;;;;;;;;;5032306;28;20307;-56
2022/03/17 03:42:38;;;;;;;;;;;;;;;;;;5032603;28;19905;-58
2022/03/17 03:45:04;;;;;;;;;;;;;;;;;;5032354;28;20371;-58
2022/03/17 03:47:30;;;;;;;;;;;;;;;;;;5032273;28;19905;-55
2022/03/17 03:49:56;;;;;;;;;;;;;;;;;;5032257;28;19955;-58
2022/03/17 03:52:21;;;;;;;;;;;;;;;;;;5032342;28;20411;-57
2022/03/17 03:54:47;;;;;;;;;;;;;;;;;;5032258;28;19905;-52
2022/03/17 03:57:13;;;;;;;;;;;;;;;;;;5032085;28;19913;-52
2022/03/17 03:59:39;;;;;;;;;;;;;;;;;;5032260;28;19959;-52
2022/03/17 04:02:05;;;;;;;;;;;;;;;;;;5035657;28;19999;-52
2022/03/17 04:04:31;;;;;;;;;;;;;;;;;;5035885;28;19905;-54
2022/03/17 04:06:58;;;;;;;;;;;;;;;;;;5035711;28;19912;-53
2022/03/17 04:09:24;;;;;;;;;;;;;;;;;;5035851;28;20278;-51
2022/03/17 04:11:49;;;;;;;;;;;;;;;;;;5035786;28;19911;-50
2022/03/17 04:14:16;;;;;;;;;;;;;;;;;;5035691;28;19911;-52
2022/03/17 04:16:42;;;;;;;;;;;;;;;;;;5035585;28;20371;-54
2022/03/17 04:19:09;;;;;;;;;;;;;;;;;;5035593;28;19905;-52
2022/03/17 04:21:35;;;;;;;;;;;;;;;;;;5035839;28;19987;-52
2022/03/17 04:24:01;;;;;;;;;;;;;;;;;;5035512;28;20315;-52
2022/03/17 04:26:27;;;;;;;;;;;;;;;;;;5035468;28;19912;-52
2022/03/17 04:28:52;;;;;;;;;;;;;;;;;;5035366;28;19955;-52
2022/03/17 04:31:18;;;;;;;;;;;;;;;;;;5035343;28;20291;-50
2022/03/17 04:33:44;;;;;;;;;;;;;;;;;;5035575;28;19909;-51
2022/03/17 04:36:10;;;;;;;;;;;;;;;;;;5035260;28;19940;-51
2022/03/17 04:38:36;;;;;;;;;;;;;;;;;;5035134;28;20006;-51
2022/03/17 04:41:02;;;;;;;;;;;;;;;;;;5035190;28;20326;-53
2022/03/17 04:43:28;;;;;;;;;;;;;;;;;;5035146;28;19909;-51
2022/03/17 04:45:53;;;;;;;;;;;;;;;;;;5035014;28;19905;-52
2022/03/17 04:48:19;;;;;;;;;;;;;;;;;;5035153;28;19911;-51
2022/03/17 04:50:45;;;;;;;;;;;;;;;;;;5035036;28;19905;-52
2022/03/17 04:53:30;;;;;;;;;;;;;;;;;;5034926;28;20454;-53
2022/03/17 04:55:55;;;;;;;;;;;;;;;;;;5034860;28;20413;-51
2022/03/17 04:58:21;;;;;;;;;;;;;;;;;;5034756;28;19917;-52
2022/03/17 05:00:47;;;;;;;;;;;;;;;;;;5034819;28;20344;-51
2022/03/17 05:03:14;;;;;;;;;;;;;;;;;;5034509;28;19923;-52
2022/03/17 05:05:40;;;;;;;;;;;;;;;;;;5034773;28;20149;-51
2022/03/17 05:08:06;;;;;;;;;;;;;;;;;;5034739;28;19912;-52
2022/03/17 05:10:32;;;;;;;;;;;;;;;;;;5034927;28;20299;-51
2022/03/17 05:12:58;;;;;;;;;;;;;;;;;;5033789;28;19909;-51
2022/03/17 05:15:24;;;;;;;;;;;;;;;;;;5034553;28;19912;-50
2022/03/17 05:17:50;;;;;;;;;;;;;;;;;;5034453;28;19972;-52
2022/03/17 05:20:16;;;;;;;;;;;;;;;;;;5034384;28;19912;-51
2022/03/17 05:22:42;;;;;;;;;;;;;;;;;;5034367;28;19909;-50
2022/03/17 05:25:08;;;;;;;;;;;;;;;;;;5034400;28;19911;-50
2022/03/17 05:27:34;;;;;;;;;;;;;;;;;;5034671;28;19905;-52
2022/03/17 05:30:00;;;;;;;;;;;;;;;;;;5034241;28;19904;-50
2022/03/17 05:32:26;;;;;;;;;;;;;;;;;;5034127;28;19905;-52
2022/03/17 05:34:52;;;;;;;;;;;;;;;;;;5034174;28;20008;-51
2022/03/17 05:37:17;;;;;;;;;;;;;;;;;;5034019;28;19960;-52
2022/03/17 05:39:43;;;;;;;;;;;;;;;;;;5034031;28;20386;-51
2022/03/17 05:42:09;;;;;;;;;;;;;;;;;;5034027;28;19912;-53
2022/03/17 05:44:35;;;;;;;;;;;;;;;;;;5034058;28;19972;-51
2022/03/17 05:47:01;;;;;;;;;;;;;;;;;;5033949;28;20361;-51
2022/03/17 05:49:28;;;;;;;;;;;;;;;;;;5034225;28;19905;-51
2022/03/17 05:51:54;;;;;;;;;;;;;;;;;;5034179;28;19959;-53
2022/03/17 05:54:19;;;;;;;;;;;;;;;;;;5033796;28;19905;-52
2022/03/17 05:56:45;;;;;;;;;;;;;;;;;;5033690;28;19905;-52
2022/03/17 05:59:11;;;;;;;;;;;;;;;;;;5033675;28;19958;-53
2022/03/17 06:01:37;;;;;;;;;;;;;;;;;;5033654;28;19912;-54
2022/03/17 06:04:03;;;;;;;;;;;;;;;;;;5033536;28;20291;-53
2022/03/17 06:06:29;;;;;;;;;;;;;;;;;;5033562;28;19909;-51
2022/03/17 06:08:55;;;;;;;;;;;;;;;;;;5033518;28;19913;-50
2022/03/17 06:11:21;;;;;;;;;;;;;;;;;;5033455;28;19958;-51
2022/03/17 06:13:47;;;;;;;;;;;;;;;;;;5033732;28;19905;-52
2022/03/17 06:16:13;;;;;;;;;;;;;;;;;;5033657;28;19920;-51
2022/03/17 06:18:40;;;;;;;;;;;;;;;;;;5033255;28;19988;-52
2022/03/17 06:21:06;;;;;;;;;;;;;;;;;;5033344;28;20378;-52
2022/03/17 06:23:32;;;;;;;;;;;;;;;;;;5033246;28;20000;-51
2022/03/17 06:25:58;;;;;;;;;;;;;;;;;;5033250;28;19948;-51
2022/03/17 06:28:23;;;;;;;;;;;;;;;;;;5033426;28;19927;-50
2022/03/17 06:30:51;;;;;;;;;;;;;;;;;;5033435;28;19912;-51
2022/03/17 06:33:17;;;;;;;;;;;;;;;;;;5033387;28;19936;-51
2022/03/17 06:35:43;;;;;;;;;;;;;;;;;;5033025;28;19912;-51
2022/03/17 06:38:08;;;;;;;;;;;;;;;;;;5033062;28;19913;-49
2022/03/17 06:40:35;;;;;;;;;;;;;;;;;;5032980;28;19905;-56
2022/03/17 06:43:04;;;;;;;;;;;;;;;;;;5033250;28;19912;-56
2022/03/17 06:45:30;;;;;;;;;;;;;;;;;;5032720;28;19912;-58
2022/03/17 06:47:56;;;;;;;;;;;;;;;;;;5032904;28;19905;-58
2022/03/17 06:50:21;;;;;;;;;;;;;;;;;;5032813;28;19969;-58
2022/03/17 06:52:47;;;;;;;;;;;;;;;;;;5032785;28;19959;-58
2022/03/17 06:55:13;;;;;;;;;;;;;;;;;;5032808;28;20426;-58
2022/03/17 06:57:39;;;;;;;;;;;;;;;;;;5032728;28;19959;-58
2022/03/17 07:00:05;;;;;;;;;;;;;;;;;;5032747;28;20060;-58
2022/03/17 07:02:31;;;;;;;;;;;;;;;;;;5032434;28;20379;-58
2022/03/17 07:04:57;;;;;;;;;;;;;;;;;;5032595;28;19912;-59
2022/03/17 07:07:23;;;;;;;;;;;;;;;;;;5032592;28;19909;-59
2022/03/17 07:09:49;;;;;;;;;;;;;;;;;;5032555;28;19905;-58
2022/03/17 07:12:15;;;;;;;;;;;;;;;;;;5032657;28;19905;-59
2022/03/17 07:14:41;;;;;;;;;;;;;;;;;;5032649;28;19905;-59
2022/03/17 07:17:07;;;;;;;;;;;;;;;;;;5032581;28;19988;-58
2022/03/17 07:19:34;;;;;;;;;;;;;;;;;;5032804;28;20378;-58
2022/03/17 07:22:00;;;;;;;;;;;;;;;;;;5032774;28;19909;-59
2022/03/17 07:24:26;;;;;;;;;;;;;;;;;;5032464;28;19912;-58
2022/03/17 07:26:52;;;;;;;;;;;;;;;;;;5032464;28;20326;-59
2022/03/17 07:29:18;;;;;;;;;;;;;;;;;;5032482;28;19912;-59
2022/03/17 07:31:44;;;;;;;;;;;;;;;;;;5032431;28;20292;-59
2022/03/17 07:34:10;;;;;;;;;;;;;;;;;;5032512;28;19959;-59
2022/03/17 07:36:36;;;;;;;;;;;;;;;;;;5035664;28;20000;-59
2022/03/17 07:39:02;;;;;;;;;;;;;;;;;;5036291;28;19912;-59
2022/03/17 07:41:28;;;;;;;;;;;;;;;;;;5036594;28;19905;-59
2022/03/17 07:43:53;;;;;;;;;;;;;;;;;;5036248;28;19905;-59
2022/03/17 07:46:19;;;;;;;;;;;;;;;;;;5036118;28;19905;-58
2022/03/17 07:48:45;;;;;;;;;;;;;;;;;;5036189;28;19955;-59
2022/03/17 07:51:11;;;;;;;;;;;;;;;;;;5036139;28;19905;-58
2022/03/17 07:53:38;;;;;;;;;;;;;;;;;;5036094;28;19905;-59
2022/03/17 07:56:04;;;;;;;;;;;;;;;;;;5036358;28;19905;-59
2022/03/17 07:58:30;;;;;;;;;;;;;;;;;;5036134;28;19920;-58
2022/03/17 08:00:56;;;;;;;;;;;;;;;;;;5035930;28;20370;-59
2022/03/17 08:03:22;;;;;;;;;;;;;;;;;;5035758;28;19927;-59
2022/03/17 08:05:47;;;;;;;;;;;;;;;;;;5035990;28;20355;-60
2022/03/17 08:08:13;;;;;;;;;;;;;;;;;;5036009;28;19959;-59
2022/03/17 08:10:39;;;;;;;;;;;;;;;;;;5035896;28;19905;-60
2022/03/17 08:13:06;;;;;;;;;;;;;;;;;;5035648;28;19905;-59
2022/03/17 08:15:32;;;;;;;;;;;;;;;;;;5035687;28;19912;-60
2022/03/17 08:17:57;;;;;;;;;;;;;;;;;;5035775;28;19974;-59
2022/03/17 08:20:24;;;;;;;;;;;;;;;;;;5035567;28;19905;-57
2022/03/17 08:22:50;;;;;;;;;;;;;;;;;;5035471;28;20064;-58
2022/03/17 08:25:16;;;;;;;;;;;;;;;;;;5035553;28;19912;-58
2022/03/17 08:27:42;;;;;;;;;;;;;;;;;;5035693;28;19909;-57
2022/03/17 08:30:08;;;;;;;;;;;;;;;;;;5035525;28;19905;-57
2022/03/17 08:32:34;;;;;;;;;;;;;;;;;;5035377;28;20367;-57
2022/03/17 08:34:59;;;;;;;;;;;;;;;;;;5035277;28;20000;-58
2022/03/17 08:37:25;;;;;;;;;;;;;;;;;;5035197;28;19975;-57
2022/03/17 08:39:51;;;;;;;;;;;;;;;;;;5035130;28;19995;-56
2022/03/17 08:42:17;;;;;;;;;;;;;;;;;;5035391;28;19905;-58
2022/03/17 08:44:43;;;;;;;;;;;;;;;;;;5035385;28;20014;-57
2022/03/17 08:49:53;;;;;;;;;;;;;;;;;;5035065;28;19928;-51
2022/03/17 08:52:19;;;;;;;;;;;;;;;;;;5034982;28;20363;-51
2022/03/17 08:54:46;;;;;;;;;;;;;;;;;;5035209;28;19952;-50
2022/03/17 08:57:12;;;;;;;;;;;;;;;;;;5034856;28;20285;-53
2022/03/17 08:59:38;;;;;;;;;;;;;;;;;;5034914;28;19905;-49
2022/03/17 09:02:04;;;;;;;;;;;;;;;;;;5034562;28;20598;-51
2022/03/17 09:04:30;;;;;;;;;;;;;;;;;;5034899;28;19905;-52
2022/03/17 09:07:00;;;;;;;;;;;;;;;;;;5034793;28;20000;-50
2022/03/17 09:09:26;;;;;;;;;;;;;;;;;;5034747;28;20334;-52
2022/03/17 09:11:52;;;;;;;;;;;;;;;;;;5034710;28;19979;-52
2022/03/17 09:14:18;;;;;;;;;;;;;;;;;;5034597;28;20375;-51
2022/03/17 09:16:43;;;;;;;;;;;;;;;;;;5034524;28;19905;-50
2022/03/17 09:19:09;;;;;;;;;;;;;;;;;;5034701;28;20328;-51
2022/03/17 09:21:35;;;;;;;;;;;;;;;;;;5034464;28;20412;-51
2022/03/17 09:24:01;;;;;;;;;;;;;;;;;;5034524;28;19909;-51
2022/03/17 09:26:27;;;;;;;;;;;;;;;;;;5034443;28;20059;-54
2022/03/17 09:28:53;;;;;;;;;;;;;;;;;;5034361;28;19905;-53
2022/03/17 09:31:19;;;;;;;;;;;;;;;;;;5034555;28;19905;-53
2022/03/17 09:33:45;;;;;;;;;;;;;;;;;;5034238;28;20367;-55
2022/03/17 09:36:11;;;;;;;;;;;;;;;;;;5034450;28;19905;-55
2022/03/17 09:38:37;;;;;;;;;;;;;;;;;;5034003;28;19913;-54
2022/03/17 09:41:23;;;;;;;;;;;;;;;;;;5034045;28;19905;-53
2022/03/17 09:43:48;;;;;;;;;;;;;;;;;;5034064;28;19905;-54
2022/03/17 09:46:15;;;;;;;;;;;;;;;;;;5034269;28;19995;-52
2022/03/17 09:48:41;;;;;;;;;;;;;;;;;;5033916;28;19909;-54
2022/03/17 09:51:06;;;;;;;;;;;;;;;;;;5033747;28;19905;-55
2022/03/17 09:53:32;;;;;;;;;;;;;;;;;;5033672;28;19912;-54
2022/03/17 09:55:58;;;;;;;;;;;;;;;;;;5033756;28;19909;-54
2022/03/17 09:58:24;;;;;;;;;;;;;;;;;;5033374;28;19913;-54
2022/03/17 10:00:53;;;;;;;;;;;;;;;;;;5033821;28;19966;-54
2022/03/17 10:03:19;;;;;;;;;;;;;;;;;;5033467;28;19917;-54
2022/03/17 10:05:45;;;;;;;;;;;;;;;;;;5033882;28;20355;-55
2022/03/17 10:08:11;;;;;;;;;;;;;;;;;;5033806;28;19909;-53
2022/03/17 10:10:37;;;;;;;;;;;;;;;;;;5033456;28;19905;-54
2022/03/17 10:13:03;;;;;;;;;;;;;;;;;;5033459;28;19905;-52
2022/03/17 10:15:29;;;;;;;;;;;;;;;;;;5033392;28;19963;-54
2022/03/17 10:17:55;;;;;;;;;;;;;;;;;;5033332;28;19979;-54
2022/03/17 10:20:22;;;;;;;;;;;;;;;;;;5033373;28;19944;-52
2022/03/17 10:22:48;;;;;;;;;;;;;;;;;;5033307;28;19912;-53
2022/03/17 10:25:14;;;;;;;;;;;;;;;;;;5033259;28;20303;-53
2022/03/17 10:27:40;;;;;;;;;;;;;;;;;;5033224;28;19925;-54
2022/03/17 10:30:06;;;;;;;;;;;;;;;;;;5033459;28;19905;-51
2022/03/17 10:32:32;;;;;;;;;;;;;;;;;;5033106;28;20011;-49
2022/03/17 10:34:58;;;;;;;;;;;;;;;;;;5033097;28;19963;-51
2022/03/17 10:37:24;;;;;;;;;;;;;;;;;;5032978;28;19913;-51
2022/03/17 10:39:49;;;;;;;;;;;;;;;;;;5032957;28;20324;-51
2022/03/17 10:42:15;;;;;;;;;;;;;;;;;;5032908;28;19912;-51
2022/03/17 10:44:41;;;;;;;;;;;;;;;;;;5032926;28;19948;-51
2022/03/17 10:47:10;;;;;;;;;;;;;;;;;;5032995;28;19959;-52
2022/03/17 10:49:36;;;;;;;;;;;;;;;;;;5032918;28;19951;-51
2022/03/17 10:52:02;;;;;;;;;;;;;;;;;;5032853;28;19909;-53
2022/03/17 10:54:28;;;;;;;;;;;;;;;;;;5032781;28;20280;-51
2022/03/17 10:56:54;;;;;;;;;;;;;;;;;;5032891;28;19905;-52
2022/03/17 10:59:21;;;;;;;;;;;;;;;;;;5032827;28;19905;-50
2022/03/17 11:01:47;;;;;;;;;;;;;;;;;;5032551;28;19909;-52
2022/03/17 11:04:13;;;;;;;;;;;;;;;;;;5032668;28;19912;-51
2022/03/17 11:06:39;;;;;;;;;;;;;;;;;;5032663;28;19905;-51
2022/03/17 11:09:04;;;;;;;;;;;;;;;;;;5032512;28;20039;-53
2022/03/17 11:11:31;;;;;;;;;;;;;;;;;;5032040;28;19912;-51
2022/03/17 11:13:57;;;;;;;;;;;;;;;;;;5032676;28;19940;-51
2022/03/17 11:16:22;;;;;;;;;;;;;;;;;;5032597;28;20406;-51
2022/03/17 11:18:48;;;;;;;;;;;;;;;;;;5032379;28;19913;-51
2022/03/17 11:21:14;;;;;;;;;;;;;;;;;;5032550;28;19931;-51
2022/03/17 11:23:40;;;;;;;;;;;;;;;;;;5032579;28;19905;-50
2022/03/17 11:26:06;;;;;;;;;;;;;;;;;;5032511;28;20425;-51
2022/03/17 11:28:32;;;;;;;;;;;;;;;;;;5032508;28;19908;-51
2022/03/17 11:30:58;;;;;;;;;;;;;;;;;;5032702;28;19909;-51
2022/03/17 11:33:24;;;;;;;;;;;;;;;;;;5032475;28;19905;-50
2022/03/17 11:35:50;;;;;;;;;;;;;;;;;;5032459;28;19983;-48
2022/03/17 11:38:16;;;;;;;;;;;;;;;;;;5032334;28;20338;-50
2022/03/17 11:40:42;;;;;;;;;;;;;;;;;;5032574;28;19916;-51
2022/03/17 11:43:08;;;;;;;;;;;;;;;;;;5032538;28;19905;-50
2022/03/17 11:45:36;;;;;;;;;;;;;;;;;;5032505;28;20330;-49
2022/03/17 11:48:03;;;;;;;;;;;;;;;;;;5032303;28;19916;-51
2022/03/17 11:50:28;;;;;;;;;;;;;;;;;;5032253;28;19905;-50
2022/03/17 11:52:54;;;;;;;;;;;;;;;;;;5032198;28;19905;-51
2022/03/17 11:55:20;;;;;;;;;;;;;;;;;;5032166;28;19912;-52
2022/03/17 11:57:46;;;;;;;;;;;;;;;;;;5032113;28;19913;-52
2022/03/17 12:00:12;;;;;;;;;;;;;;;;;;5032413;28;19915;-51
2022/03/17 12:02:38;;;;;;;;;;;;;;;;;;5031922;28;20007;-50
2022/03/17 12:05:04;;;;;;;;;;;;;;;;;;5032093;28;19955;-51
2022/03/17 12:07:30;;;;;;;;;;;;;;;;;;5032071;28;19959;-51
2022/03/17 12:09:55;;;;;;;;;;;;;;;;;;5032120;28;20388;-50
2022/03/17 12:12:25;;;;;;;;;;;;;;;;;;5032119;28;20090;-51
2022/03/17 12:14:52;;;;;;;;;;;;;;;;;;5032376;28;19908;-49
2022/03/17 12:17:18;;;;;;;;;;;;;;;;;;5032250;28;19982;-52
2022/03/17 12:19:51;;;;;;;;;;;;;;;;;;5032022;28;20375;-50
2022/03/17 12:22:16;;;;;;;;;;;;;;;;;;5034364;28;19905;-50
2022/03/17 12:24:45;;;;;;;;;;;;;;;;;;5035547;28;19916;-49
2022/03/17 12:27:12;;;;;;;;;;;;;;;;;;5035537;28;19904;-50
2022/03/17 12:29:37;;;;;;;;;;;;;;;;;;5035515;28;19992;-50
2022/03/17 12:32:04;;;;;;;;;;;;;;;;;;5035404;28;20006;-50
2022/03/17 12:34:29;;;;;;;;;;;;;;;;;;5035343;28;20287;-49
2022/03/17 12:36:55;;;;;;;;;;;;;;;;;;5035206;28;19905;-50
2022/03/17 12:39:21;;;;;;;;;;;;;;;;;;5035270;28;20063;-50
2022/03/17 12:41:47;;;;;;;;;;;;;;;;;;5035142;28;19905;-50
2022/03/17 12:44:13;;;;;;;;;;;;;;;;;;5035137;28;20007;-49
2022/03/17 12:46:39;;;;;;;;;;;;;;;;;;5035257;28;20275;-52
2022/03/17 12:49:05;;;;;;;;;;;;;;;;;;5034838;28;19984;-51
2022/03/17 12:51:30;;;;;;;;;;;;;;;;;;5035143;28;19905;-54
2022/03/17 12:53:56;;;;;;;;;;;;;;;;;;5034947;28;20398;-55
2022/03/17 12:56:22;;;;;;;;;;;;;;;;;;5034781;28;19991;-54
2022/03/17 12:58:48;;;;;;;;;;;;;;;;;;5034795;28;19917;-55
2022/03/17 13:01:14;;;;;;;;;;;;;;;;;;5034734;28;20576;-53
2022/03/17 13:03:40;;;;;;;;;;;;;;;;;;5034706;28;20292;-53
2022/03/17 13:08:51;;;;;;;;;;;;;;;;;;5034707;28;19911;-52
2022/03/17 13:16:46;;;;;;;;;;;;;;;;;;5034558;28;19967;-51
2022/03/17 13:19:12;;;;;;;;;;;;;;;;;;5034465;28;19913;-53
2022/03/17 13:21:38;;;;;;;;;;;;;;;;;;5034409;28;19905;-50
2022/03/17 13:24:04;;;;;;;;;;;;;;;;;;5034416;28;20398;-50
2022/03/17 13:26:30;;;;;;;;;;;;;;;;;;5034462;28;19905;-52
2022/03/17 13:29:00;;;;;;;;;;;;;;;;;;5034350;28;19912;-51
2022/03/17 13:31:25;;;;;;;;;;;;;;;;;;5034265;28;20351;-50
2022/03/17 13:33:51;;;;;;;;;;;;;;;;;;5033851;28;19997;-53
2022/03/17 13:36:18;;;;;;;;;;;;;;;;;;5034204;28;20356;-54
2022/03/17 13:38:44;;;;;;;;;;;;;;;;;;5034138;28;20390;-53
2022/03/17 13:41:09;;;;;;;;;;;;;;;;;;5034168;28;19936;-54
2022/03/17 13:43:35;;;;;;;;;;;;;;;;;;5034191;28;19983;-51
2022/03/17 13:46:01;;;;;;;;;;;;;;;;;;5033920;28;20002;-54
2022/03/17 13:48:28;;;;;;;;;;;;;;;;;;5033901;28;20396;-52
2022/03/17 13:50:54;;;;;;;;;;;;;;;;;;5033775;28;19928;-55
2022/03/17 13:53:20;;;;;;;;;;;;;;;;;;5033816;28;20432;-51
2022/03/17 13:55:46;;;;;;;;;;;;;;;;;;5033734;28;19905;-52
2022/03/17 13:58:12;;;;;;;;;;;;;;;;;;5033861;28;19959;-55
2022/03/17 14:00:38;;;;;;;;;;;;;;;;;;5033736;28;19905;-53
2022/03/17 14:03:03;;;;;;;;;;;;;;;;;;5033431;28;20013;-52
2022/03/17 14:05:29;;;;;;;;;;;;;;;;;;5033333;28;19912;-54
2022/03/17 14:07:55;;;;;;;;;;;;;;;;;;5033414;28;19905;-53
2022/03/17 14:10:21;;;;;;;;;;;;;;;;;;5033605;28;19937;-52
2022/03/17 14:12:47;;;;;;;;;;;;;;;;;;5033445;28;20420;-53
2022/03/17 14:15:13;;;;;;;;;;;;;;;;;;5033402;28;19905;-51
2022/03/17 14:17:39;;;;;;;;;;;;;;;;;;5033344;28;20350;-55
2022/03/17 14:20:05;;;;;;;;;;;;;;;;;;5033496;28;19970;-55
2022/03/17 14:25:15;;;;;;;;;;;;;;;;;;5033333;28;19912;-55
2022/03/17 14:27:41;;;;;;;;;;;;;;;;;;5033213;28;19905;-56
2022/03/17 14:30:07;;;;;;;;;;;;;;;;;;5033106;28;19905;-55
2022/03/17 14:32:35;;;;;;;;;;;;;;;;;;5033097;28;20007;-51
2022/03/17 14:35:01;;;;;;;;;;;;;;;;;;5033348;28;20047;-52
2022/03/17 14:37:27;;;;;;;;;;;;;;;;;;5033039;28;19913;-52
2022/03/17 14:39:53;;;;;;;;;;;;;;;;;;5033288;28;19978;-52
2022/03/17 14:42:20;;;;;;;;;;;;;;;;;;5032849;28;20316;-51
2022/03/17 14:44:46;;;;;;;;;;;;;;;;;;5032023;28;19912;-52
2022/03/17 14:47:11;;;;;;;;;;;;;;;;;;5032887;28;19909;-53
2022/03/17 14:49:37;;;;;;;;;;;;;;;;;;5032803;28;19905;-55
2022/03/17 14:52:03;;;;;;;;;;;;;;;;;;5032777;28;19955;-50
2022/03/17 14:54:29;;;;;;;;;;;;;;;;;;5032907;28;20008;-52
2022/03/17 14:56:55;;;;;;;;;;;;;;;;;;5032908;28;19913;-54
2022/03/17 14:59:21;;;;;;;;;;;;;;;;;;5032729;28;20362;-53
2022/03/17 15:01:47;;;;;;;;;;;;;;;;;;5032753;28;19908;-52
2022/03/17 15:04:13;;;;;;;;;;;;;;;;;;5032992;28;19909;-52
2022/03/17 15:06:38;;;;;;;;;;;;;;;;;;5032732;28;19999;-52
2022/03/17 15:09:04;;;;;;;;;;;;;;;;;;5032714;28;19912;-53
2022/03/17 15:11:30;;;;;;;;;;;;;;;;;;5032843;28;19911;-54
2022/03/17 15:13:56;;;;;;;;;;;;;;;;;;5032528;28;19905;-54
2022/03/17 15:16:22;;;;;;;;;;;;;;;;;;5032556;28;19909;-51
2022/03/17 15:18:48;;;;;;;;;;;;;;;;;;5032408;28;19913;-49
2022/03/17 15:21:14;;;;;;;;;;;;;;;;;;5032735;28;19905;-50
2022/03/17 15:23:40;;;;;;;;;;;;;;;;;;5032548;28;20373;-50
2022/03/17 15:26:06;;;;;;;;;;;;;;;;;;5032781;28;19936;-51
2022/03/17 15:31:18;;;;;;;;;;;;;;;;;;5032537;28;19913;-53
2022/03/17 15:33:43;;;;;;;;;;;;;;;;;;5032569;28;19912;-50
2022/03/17 15:36:09;;;;;;;;;;;;;;;;;;5032470;28;20314;-50
2022/03/17 15:38:35;;;;;;;;;;;;;;;;;;5032224;28;19993;-50
2022/03/17 15:41:01;;;;;;;;;;;;;;;;;;5032287;28;19941;-51
2022/03/17 15:43:27;;;;;;;;;;;;;;;;;;5032369;28;19950;-50
2022/03/17 15:45:53;;;;;;;;;;;;;;;;;;5032314;28;19912;-53
2022/03/17 15:48:19;;;;;;;;;;;;;;;;;;5032330;28;20000;-53
2022/03/17 15:50:48;;;;;;;;;;;;;;;;;;5032253;28;19931;-52
2022/03/17 15:53:13;;;;;;;;;;;;;;;;;;5032399;28;20260;-54
2022/03/17 15:55:39;;;;;;;;;;;;;;;;;;5032324;28;19912;-55
2022/03/17 15:58:05;;;;;;;;;;;;;;;;;;5035906;28;20003;-54
2022/03/17 16:00:31;;;;;;;;;;;;;;;;;;5036239;28;19905;-54
2022/03/17 16:03:01;;;;;;;;;;;;;;;;;;5035592;28;19917;-54
2022/03/17 16:05:27;;;;;;;;;;;;;;;;;;5035882;28;20367;-54
2022/03/17 16:07:53;;;;;;;;;;;;;;;;;;5035901;28;19913;-53
2022/03/17 16:15:47;;;;;;;;;;;;;;;;;;5035826;28;19912;-53
2022/03/17 16:18:16;;;;;;;;;;;;;;;;;;5034335;28;19913;-50
2022/03/17 16:20:44;;;;;;;;;;;;;;;;;;5035617;28;19915;-51
2022/03/17 16:23:10;;;;;;;;;;;;;;;;;;5035619;28;20032;-51
2022/03/17 16:25:36;;;;;;;;;;;;;;;;;;5035545;28;20403;-50
2022/03/17 16:28:01;;;;;;;;;;;;;;;;;;5035535;28;19909;-51
2022/03/17 16:30:27;;;;;;;;;;;;;;;;;;5035280;28;20272;-50
2022/03/17 16:32:53;;;;;;;;;;;;;;;;;;5035175;28;19936;-50
2022/03/17 16:35:19;;;;;;;;;;;;;;;;;;5035137;28;19912;-50
2022/03/17 16:37:45;;;;;;;;;;;;;;;;;;5034985;28;20356;-53
2022/03/17 16:40:11;;;;;;;;;;;;;;;;;;5035152;28;19905;-52
2022/03/17 16:42:37;;;;;;;;;;;;;;;;;;5035138;28;19912;-50
2022/03/17 16:45:03;;;;;;;;;;;;;;;;;;5035054;28;19954;-51
2022/03/17 16:47:29;;;;;;;;;;;;;;;;;;5035028;28;19936;-51
2022/03/17 16:49:55;;;;;;;;;;;;;;;;;;5034885;28;19912;-51
2022/03/17 16:52:22;;;;;;;;;;;;;;;;;;5034726;28;19905;-51
2022/03/17 16:54:48;;;;;;;;;;;;;;;;;;5034845;28;19905;-51
2022/03/17 16:57:14;;;;;;;;;;;;;;;;;;5034691;28;19999;-53
2022/03/17 16:59:40;;;;;;;;;;;;;;;;;;5034751;28;20429;-51
2022/03/17 17:02:06;;;;;;;;;;;;;;;;;;5034515;28;19917;-51
2022/03/17 17:04:33;;;;;;;;;;;;;;;;;;5034743;28;20278;-51
2022/03/17 17:06:59;;;;;;;;;;;;;;;;;;5034495;28;19905;-51
2022/03/17 17:09:25;;;;;;;;;;;;;;;;;;5033613;28;19908;-51